Time;durP1;ratioP1;P1;durP2;ratioP2;P2;SDS_P1;SDS_P2;PMS_P1;PMS_P2;Temp;Humidity;BMP_temperature;BMP_pressure;BME280_temperature;BME280_humidity;BME280_pressure;Samples;Min_cycle;Max_cycle;Signal;HPM_P1;HPM_P2
2022/10/14 00:01:34;;;;;;;1.73;0.90;;;13.90;99.90;;;;;;5036021;28;20456;-73
2022/10/14 00:04:01;;;;;;;1.43;1.10;;;13.90;99.90;;;;;;5031688;28;20737;-73
2022/10/14 00:06:31;;;;;;;3.40;1.00;;;13.80;99.90;;;;;;5035112;28;20448;-74
2022/10/14 00:09:00;;;;;;;2.27;1.00;;;13.80;99.90;;;;;;5031931;28;20456;-74
2022/10/14 00:11:30;;;;;;;2.23;1.07;;;13.80;99.90;;;;;;5034990;28;20452;-73
2022/10/14 00:13:59;;;;;;;1.97;0.93;;;13.80;99.90;;;;;;5032220;28;20491;-73
2022/10/14 00:16:30;;;;;;;3.40;1.10;;;13.80;99.90;;;;;;5034708;28;20569;-73
2022/10/14 00:18:57;;;;;;;2.57;0.97;;;13.80;99.90;;;;;;5031450;28;20455;-73
2022/10/14 00:21:25;;;;;;;2.50;1.30;;;13.80;99.90;;;;;;5034094;28;20456;-74
2022/10/14 00:23:54;;;;;;;1.93;1.00;;;13.80;99.90;;;;;;5030020;28;20464;-73
2022/10/14 00:26:23;;;;;;;4.60;1.63;;;13.80;99.90;;;;;;5034437;28;20456;-73
2022/10/14 00:28:51;;;;;;;1.40;1.00;;;13.70;99.90;;;;;;5031888;28;20526;-74
2022/10/14 00:31:18;;;;;;;1.37;1.00;;;13.70;99.90;;;;;;5035753;28;20456;-74
2022/10/14 00:33:46;;;;;;;1.53;1.10;;;13.70;99.90;;;;;;5032495;28;20464;-73
2022/10/14 00:36:15;;;;;;;2.53;1.20;;;13.80;99.90;;;;;;5035855;28;20543;-74
2022/10/14 00:38:44;;;;;;;1.57;1.13;;;13.80;99.90;;;;;;5034157;28;20669;-73
2022/10/14 00:41:13;;;;;;;2.00;1.00;;;13.80;99.90;;;;;;5037470;28;20497;-74
2022/10/14 00:43:57;;;;;;;1.57;1.10;;;13.90;99.90;;;;;;5033646;28;20464;-73
2022/10/14 00:46:25;;;;;;;2.27;1.10;;;13.90;99.90;;;;;;5036749;28;20448;-73
2022/10/14 00:48:52;;;;;;;2.73;1.30;;;13.90;99.90;;;;;;5033486;28;20819;-73
2022/10/14 00:51:21;;;;;;;4.20;1.10;;;13.90;99.90;;;;;;5036655;28;20436;-74
2022/10/14 00:53:48;;;;;;;2.83;1.30;;;13.90;99.90;;;;;;5032185;28;20912;-73
2022/10/14 00:56:22;;;;;;;2.57;1.10;;;13.90;99.90;;;;;;5034660;28;20484;-74
2022/10/14 00:58:49;;;;;;;4.23;1.20;;;13.80;99.90;;;;;;5032197;28;20762;-73
2022/10/14 01:01:16;;;;;;;1.83;1.10;;;13.80;99.90;;;;;;5034656;28;20452;-74
2022/10/14 01:03:43;;;;;;;1.60;1.10;;;13.80;99.90;;;;;;5031165;28;20460;-74
2022/10/14 01:06:20;;;;;;;2.47;1.20;;;13.80;99.90;;;;;;5034922;28;20452;-73
2022/10/14 01:08:56;;;;;;;4.67;1.10;;;13.80;99.90;;;;;;5033370;28;20507;-73
2022/10/14 01:11:33;;;;;;;1.30;1.00;;;13.80;99.90;;;;;;5036569;28;20517;-74
2022/10/14 01:14:09;;;;;;;2.23;1.00;;;13.80;99.90;;;;;;5032235;28;20530;-73
2022/10/14 01:16:45;;;;;;;3.00;1.07;;;13.80;99.90;;;;;;5035857;28;20545;-74
2022/10/14 01:19:37;;;;;;;2.47;1.10;;;13.80;99.90;;;;;;5032537;28;20460;-73
2022/10/14 01:22:13;;;;;;;4.30;1.00;;;13.80;99.90;;;;;;5036111;28;20953;-73
2022/10/14 01:24:50;;;;;;;2.07;1.10;;;13.80;99.90;;;;;;5032238;28;20455;-73
2022/10/14 01:27:53;;;;;;;1.63;1.20;;;13.80;99.90;;;;;;5035995;28;20447;-74
2022/10/14 01:30:23;;;;;;;1.73;1.07;;;13.80;99.90;;;;;;5036112;28;20460;-74
2022/10/14 01:33:08;;;;;;;1.90;1.20;;;13.90;99.90;;;;;;5039517;28;20482;-74
2022/10/14 01:35:56;;;;;;;3.00;1.20;;;13.90;99.90;;;;;;5039296;28;20491;-74
2022/10/14 01:38:27;;;;;;;1.60;0.90;;;14.00;99.90;;;;;;5036260;28;20549;-74
2022/10/14 01:40:59;;;;;;;3.87;1.40;;;14.00;99.90;;;;;;5039723;28;20541;-73
2022/10/14 01:43:30;;;;;;;2.00;1.10;;;13.90;99.90;;;;;;5036289;28;20810;-74
2022/10/14 01:46:02;;;;;;;1.70;1.00;;;13.90;99.90;;;;;;5039233;28;20502;-73
2022/10/14 01:48:33;;;;;;;1.83;1.07;;;13.90;99.90;;;;;;5035760;28;20510;-74
2022/10/14 01:51:04;;;;;;;1.63;1.00;;;13.90;99.90;;;;;;5038504;28;20432;-73
2022/10/14 01:53:37;;;;;;;3.47;1.30;;;13.90;99.90;;;;;;5036502;28;20452;-74
2022/10/14 01:56:07;;;;;;;2.23;1.00;;;13.90;99.90;;;;;;5039496;28;20574;-73
2022/10/14 01:58:36;;;;;;;1.20;1.00;;;13.90;99.90;;;;;;5036180;28;20542;-73
2022/10/14 02:01:05;;;;;;;1.20;1.00;;;13.90;99.90;;;;;;5039266;28;20900;-73
2022/10/14 02:03:40;;;;;;;1.20;1.00;;;14.20;99.90;;;;;;5035992;28;20456;-73
2022/10/14 02:06:14;;;;;;;1.80;1.00;;;14.20;99.90;;;;;;5038766;28;20880;-73
2022/10/14 02:08:56;;;;;;;3.13;0.97;;;14.00;99.90;;;;;;5036300;28;20448;-73
2022/10/14 02:11:23;;;;;;;2.93;1.13;;;14.00;99.90;;;;;;5039095;28;20731;-73
2022/10/14 02:14:03;;;;;;;1.80;1.00;;;14.10;99.90;;;;;;5039055;28;20488;-73
2022/10/14 02:16:38;;;;;;;2.13;1.00;;;14.10;99.90;;;;;;5038257;28;20542;-73
2022/10/14 02:19:16;;;;;;;2.70;1.00;;;14.10;99.90;;;;;;5034416;28;20465;-73
2022/10/14 02:21:46;;;;;;;2.73;1.10;;;14.10;99.90;;;;;;5037329;28;20460;-73
2022/10/14 02:24:30;;;;;;;1.90;1.00;;;14.10;99.90;;;;;;5035201;28;20460;-73
2022/10/14 02:27:01;;;;;;;3.77;1.50;;;14.10;99.90;;;;;;5036027;28;20448;-73
2022/10/14 02:29:29;;;;;;;1.87;1.10;;;14.10;99.90;;;;;;5034079;28;20464;-74
2022/10/14 02:31:59;;;;;;;3.60;1.10;;;14.00;99.90;;;;;;5036906;28;20876;-74
2022/10/14 02:34:26;;;;;;;2.30;1.20;;;14.00;99.90;;;;;;5032438;28;20460;-73
2022/10/14 02:36:55;;;;;;;1.77;1.20;;;14.00;99.90;;;;;;5037122;28;20519;-73
2022/10/14 02:39:28;;;;;;;1.50;1.10;;;13.90;99.90;;;;;;5034182;28;20792;-74
2022/10/14 02:41:55;;;;;;;1.40;0.90;;;13.90;99.90;;;;;;5036707;28;20492;-73
2022/10/14 02:44:22;;;;;;;1.30;0.80;;;13.90;99.90;;;;;;5034922;28;20483;-74
2022/10/14 02:46:49;;;;;;;2.13;1.20;;;13.80;99.90;;;;;;5038368;28;20445;-73
2022/10/14 02:49:18;;;;;;;2.23;0.93;;;13.90;99.90;;;;;;5035241;28;20456;-73
2022/10/14 02:51:45;;;;;;;1.47;1.00;;;13.80;99.90;;;;;;5037924;28;20463;-73
2022/10/14 02:54:12;;;;;;;1.93;1.20;;;13.80;99.90;;;;;;5034753;28;20457;-73
2022/10/14 02:56:39;;;;;;;1.93;1.23;;;13.80;99.90;;;;;;5036913;28;20452;-73
2022/10/14 02:59:06;;;;;;;2.20;1.43;;;13.70;99.90;;;;;;5034303;28;20766;-73
2022/10/14 03:01:35;;;;;;;2.20;1.27;;;13.60;99.90;;;;;;5037611;28;20522;-73
2022/10/14 03:04:02;;;;;;;10.80;1.43;;;13.60;99.90;;;;;;5037883;28;20935;-73
2022/10/14 03:06:31;;;;;;;5.67;1.20;;;13.60;99.90;;;;;;5037526;28;20445;-73
2022/10/14 03:08:58;;;;;;;1.70;1.10;;;13.60;99.90;;;;;;5038959;28;20456;-73
2022/10/14 03:11:25;;;;;;;2.80;1.20;;;13.60;99.90;;;;;;5036490;28;20516;-73
2022/10/14 03:13:51;;;;;;;1.90;1.50;;;13.60;99.90;;;;;;5037982;28;20475;-73
2022/10/14 03:16:18;;;;;;;4.83;1.70;;;13.60;99.90;;;;;;5035032;28;20460;-73
2022/10/14 03:18:45;;;;;;;4.13;1.47;;;13.60;99.90;;;;;;5038110;28;20488;-73
2022/10/14 03:21:12;;;;;;;3.50;1.77;;;13.60;99.90;;;;;;5033321;28;20448;-74
2022/10/14 03:23:41;;;;;;;2.60;1.20;;;13.60;99.90;;;;;;5035149;28;20892;-73
2022/10/14 03:26:08;;;;;;;2.63;1.57;;;13.60;99.90;;;;;;5034779;28;20468;-73
2022/10/14 03:28:35;;;;;;;5.57;1.50;;;13.50;99.90;;;;;;5037490;28;20444;-73
2022/10/14 03:31:02;;;;;;;2.07;1.50;;;13.50;99.90;;;;;;5034650;28;20464;-73
2022/10/14 03:33:29;;;;;;;3.27;1.50;;;13.50;99.90;;;;;;5036758;28;20444;-73
2022/10/14 03:35:56;;;;;;;3.00;1.57;;;13.50;99.90;;;;;;5032764;28;20514;-73
2022/10/14 03:38:26;;;;;;;1.60;1.10;;;13.60;99.90;;;;;;5037089;28;20546;-73
2022/10/14 03:40:55;;;;;;;3.20;1.30;;;13.60;99.90;;;;;;5035050;28;20456;-73
2022/10/14 03:43:22;;;;;;;2.00;1.30;;;13.70;99.90;;;;;;5037086;28;20865;-73
2022/10/14 03:45:49;;;;;;;3.40;1.57;;;13.70;99.90;;;;;;5035925;28;20471;-73
2022/10/14 03:48:16;;;;;;;4.23;1.30;;;13.80;99.90;;;;;;5037374;28;20445;-74
2022/10/14 03:50:43;;;;;;;2.53;1.20;;;13.80;99.90;;;;;;5033762;28;20471;-73
2022/10/14 03:53:10;;;;;;;1.93;1.40;;;13.80;99.90;;;;;;5036941;28;20798;-73
2022/10/14 03:55:37;;;;;;;1.90;1.40;;;13.80;99.90;;;;;;5033948;28;20471;-73
2022/10/14 03:58:05;;;;;;;3.67;1.40;;;13.80;99.90;;;;;;5037013;28;20488;-73
2022/10/14 04:00:34;;;;;;;2.70;1.30;;;13.80;99.90;;;;;;5033850;28;20524;-73
2022/10/14 04:03:01;;;;;;;2.30;1.70;;;13.80;99.90;;;;;;5037482;28;20855;-73
2022/10/14 04:05:32;;;;;;;1.87;1.40;;;13.80;99.90;;;;;;5032218;28;20533;-74
2022/10/14 04:07:59;;;;;;;2.10;1.10;;;13.80;99.90;;;;;;5035411;28;20448;-74
2022/10/14 04:10:27;;;;;;;3.93;1.10;;;13.80;99.90;;;;;;5036009;28;20514;-74
2022/10/14 04:12:54;;;;;;;2.53;1.40;;;13.80;99.90;;;;;;5032647;28;20977;-75
2022/10/14 04:15:23;;;;;;;2.13;1.30;;;13.90;99.90;;;;;;5035542;28;20997;-75
2022/10/14 04:17:50;;;;;;;3.43;1.40;;;13.90;99.90;;;;;;5032783;28;20562;-75
2022/10/14 04:20:17;;;;;;;3.30;1.30;;;13.90;99.90;;;;;;5035246;28;20527;-75
2022/10/14 04:22:44;;;;;;;3.30;1.37;;;13.80;99.90;;;;;;5033638;28;20456;-75
2022/10/14 04:25:11;;;;;;;2.60;1.47;;;13.80;99.90;;;;;;5036111;28;20448;-75
2022/10/14 04:27:38;;;;;;;1.73;1.20;;;13.80;99.90;;;;;;5033680;28;20745;-75
2022/10/14 04:30:06;;;;;;;4.70;1.87;;;13.80;99.90;;;;;;5036191;28;20522;-75
2022/10/14 04:32:34;;;;;;;4.43;1.90;;;13.70;99.90;;;;;;5035447;28;20512;-75
2022/10/14 04:35:01;;;;;;;1.93;1.50;;;13.70;99.90;;;;;;5036758;28;20511;-75
2022/10/14 04:37:29;;;;;;;3.43;1.57;;;13.70;99.90;;;;;;5032725;28;20955;-75
2022/10/14 04:39:56;;;;;;;2.93;1.20;;;13.70;99.90;;;;;;5036120;28;20902;-75
2022/10/14 04:42:23;;;;;;;3.13;1.80;;;13.70;99.90;;;;;;5031550;28;20542;-74
2022/10/14 04:44:50;;;;;;;2.67;1.47;;;13.60;99.90;;;;;;5036346;28;20452;-74
2022/10/14 04:47:17;;;;;;;2.63;1.60;;;13.60;99.90;;;;;;5034570;28;20460;-74
2022/10/14 04:49:45;;;;;;;3.30;1.80;;;13.60;99.90;;;;;;5037227;28;20448;-74
2022/10/14 04:52:12;;;;;;;2.63;1.37;;;13.60;99.90;;;;;;5034362;28;20456;-74
2022/10/14 04:54:39;;;;;;;8.53;2.30;;;13.60;99.90;;;;;;5036492;28;20457;-74
2022/10/14 04:57:06;;;;;;;4.00;1.53;;;13.60;99.90;;;;;;5031175;28;20679;-74
2022/10/14 04:59:34;;;;;;;3.53;1.80;;;13.60;99.90;;;;;;5034870;28;20479;-74
2022/10/14 05:02:00;;;;;;;4.30;1.70;;;13.60;99.90;;;;;;5033134;28;20570;-74
2022/10/14 05:04:27;;;;;;;1.97;1.63;;;13.60;99.90;;;;;;5036723;28;20538;-74
2022/10/14 05:06:56;;;;;;;2.83;1.43;;;13.60;99.90;;;;;;5034028;28;20456;-75
2022/10/14 05:09:24;;;;;;;3.80;1.50;;;13.60;99.90;;;;;;5037576;28;20444;-74
2022/10/14 05:11:51;;;;;;;2.20;1.60;;;13.60;99.90;;;;;;5035520;28;20810;-74
2022/10/14 05:14:18;;;;;;;3.30;1.90;;;13.50;99.90;;;;;;5038891;28;20538;-74
2022/10/14 05:16:45;;;;;;;2.80;1.60;;;13.50;99.90;;;;;;5035965;28;20484;-74
2022/10/14 05:19:12;;;;;;;2.90;1.90;;;13.50;99.90;;;;;;5037572;28;20912;-74
2022/10/14 05:21:38;;;;;;;8.57;2.43;;;13.40;99.90;;;;;;5034466;28;20479;-74
2022/10/14 05:24:08;;;;;;;2.80;2.27;;;13.40;99.90;;;;;;5038457;28;20452;-74
2022/10/14 05:26:35;;;;;;;2.27;1.53;;;13.40;99.90;;;;;;5035404;28;20455;-74
2022/10/14 05:29:01;;;;;;;3.23;1.60;;;13.30;99.90;;;;;;5038486;28;20440;-75
2022/10/14 05:31:29;;;;;;;3.43;1.60;;;13.40;99.90;;;;;;5033698;28;20428;-75
2022/10/14 05:33:56;;;;;;;3.87;1.90;;;13.30;99.90;;;;;;5037833;28;20516;-75
2022/10/14 05:36:24;;;;;;;2.90;1.30;;;13.40;99.90;;;;;;5032228;28;20448;-76
2022/10/14 05:38:54;;;;;;;6.93;2.43;;;13.40;99.90;;;;;;5036275;28;21239;-75
2022/10/14 05:41:25;;;;;;;3.93;1.63;;;13.40;99.90;;;;;;5036995;28;20456;-75
2022/10/14 05:43:55;;;;;;;4.83;1.93;;;13.40;99.90;;;;;;5035745;28;20444;-75
2022/10/14 05:46:22;;;;;;;2.30;1.80;;;13.40;99.90;;;;;;5035108;28;20448;-76
2022/10/14 05:48:49;;;;;;;6.17;1.73;;;13.40;99.90;;;;;;5037588;28;20448;-75
2022/10/14 05:51:19;;;;;;;3.70;1.60;;;13.40;99.90;;;;;;5037752;28;20448;-75
2022/10/14 05:53:46;;;;;;;4.33;2.03;;;13.40;99.90;;;;;;5038352;28;20456;-75
2022/10/14 05:56:14;;;;;;;6.80;1.87;;;13.40;99.90;;;;;;5037385;28;20444;-75
2022/10/14 05:58:42;;;;;;;3.17;1.80;;;13.40;99.90;;;;;;5034603;28;20488;-75
2022/10/14 06:01:11;;;;;;;5.50;2.90;;;13.50;99.90;;;;;;5038835;28;20506;-76
2022/10/14 06:03:37;;;;;;;4.77;2.40;;;13.50;99.90;;;;;;5036518;28;20456;-76
2022/10/14 06:06:05;;;;;;;4.47;2.10;;;13.60;99.90;;;;;;5038295;28;20448;-76
2022/10/14 06:08:32;;;;;;;2.63;1.47;;;13.70;99.90;;;;;;5035105;28;20460;-75
2022/10/14 06:11:04;;;;;;;2.07;1.37;;;13.70;99.90;;;;;;5039350;28;20453;-76
2022/10/14 06:13:31;;;;;;;2.57;1.60;;;13.80;99.90;;;;;;5036060;28;20519;-76
2022/10/14 06:16:05;;;;;;;3.80;1.50;;;13.80;99.90;;;;;;5039029;28;20852;-75
2022/10/14 06:18:32;;;;;;;2.60;1.77;;;13.80;99.90;;;;;;5039756;28;20488;-76
2022/10/14 06:20:59;;;;;;;2.73;1.60;;;13.80;99.90;;;;;;5037688;28;20445;-75
2022/10/14 06:23:26;;;;;;;1.93;1.20;;;13.80;99.90;;;;;;5038654;28;20505;-76
2022/10/14 06:25:53;;;;;;;3.30;1.70;;;13.80;99.90;;;;;;5039008;28;20791;-75
2022/10/14 06:28:20;;;;;;;3.87;1.80;;;13.80;99.90;;;;;;5036163;28;20452;-76
2022/10/14 06:30:50;;;;;;;5.33;1.80;;;13.80;99.90;;;;;;5038212;28;20452;-75
2022/10/14 06:33:18;;;;;;;5.67;1.63;;;13.90;99.90;;;;;;5037238;28;20566;-76
2022/10/14 06:35:45;;;;;;;10.13;1.63;;;13.90;99.90;;;;;;5036814;28;20468;-75
2022/10/14 06:38:12;;;;;;;6.00;1.67;;;13.90;99.90;;;;;;5032652;28;20480;-74
2022/10/14 06:40:39;;;;;;;3.50;1.70;;;13.90;99.90;;;;;;5038938;28;20464;-75
2022/10/14 06:43:07;;;;;;;4.90;2.20;;;13.90;99.90;;;;;;5038111;28;20537;-75
2022/10/14 06:45:34;;;;;;;3.50;2.07;;;14.00;99.90;;;;;;5055494;28;20451;-75
2022/10/14 06:48:00;;;;;;;3.00;2.20;;;13.90;99.90;;;;;;5050585;28;20440;-75
2022/10/14 06:50:29;;;;;;;4.23;1.97;;;14.00;99.90;;;;;;5048833;28;20436;-75
2022/10/14 06:52:56;;;;;;;2.30;1.47;;;14.00;99.90;;;;;;5043997;28;20460;-75
2022/10/14 06:55:23;;;;;;;2.73;1.23;;;14.00;99.90;;;;;;5049781;28;20497;-74
2022/10/14 06:57:50;;;;;;;2.90;1.70;;;14.00;99.90;;;;;;5054414;28;20459;-74
2022/10/14 07:00:18;;;;;;;5.50;1.93;;;14.10;99.90;;;;;;5056153;28;20458;-75
2022/10/14 07:02:45;;;;;;;2.77;1.30;;;14.00;99.90;;;;;;5054139;28;20509;-75
2022/10/14 07:05:12;;;;;;;2.30;1.60;;;14.10;99.90;;;;;;5056895;28;20451;-74
2022/10/14 07:07:41;;;;;;;3.13;1.80;;;14.20;99.90;;;;;;5052733;28;20898;-75
2022/10/14 07:10:09;;;;;;;3.70;1.40;;;14.30;99.90;;;;;;5054822;28;20803;-73
2022/10/14 07:12:36;;;;;;;3.93;1.90;;;14.30;99.90;;;;;;5052384;28;20490;-74
2022/10/14 07:15:06;;;;;;;2.70;1.30;;;14.30;99.90;;;;;;5056104;28;20910;-75
2022/10/14 07:17:33;;;;;;;2.70;1.77;;;14.40;99.90;;;;;;5051767;28;20459;-74
2022/10/14 07:20:00;;;;;;;3.63;1.30;;;14.40;99.90;;;;;;5054938;28;20490;-74
2022/10/14 07:22:27;;;;;;;6.07;2.00;;;14.40;99.90;;;;;;5052585;28;20949;-75
2022/10/14 07:24:55;;;;;;;3.53;1.93;;;14.40;99.90;;;;;;5048205;28;20821;-74
2022/10/14 07:27:22;;;;;;;2.30;1.40;;;14.40;99.90;;;;;;5031845;28;20448;-73
2022/10/14 07:29:49;;;;;;;2.13;1.40;;;14.50;99.90;;;;;;5048689;28;20441;-73
2022/10/14 07:32:16;;;;;;;3.20;1.40;;;14.50;99.90;;;;;;5031685;28;20448;-73
2022/10/14 07:34:43;;;;;;;4.73;2.13;;;14.70;99.90;;;;;;5045147;28;20443;-74
2022/10/14 07:37:10;;;;;;;2.30;1.20;;;14.80;99.90;;;;;;5040519;28;20892;-74
2022/10/14 07:39:37;;;;;;;3.10;1.80;;;14.90;99.90;;;;;;5036069;28;20488;-78
2022/10/14 07:42:06;;;;;;;2.72;1.40;;;15.10;99.90;;;;;;5032491;28;20530;-77
2022/10/14 07:44:33;;;;;;;3.43;1.50;;;15.10;99.90;;;;;;5036526;28;20598;-76
2022/10/14 07:47:02;;;;;;;1.70;1.13;;;15.20;99.90;;;;;;5031310;28;20451;-76
2022/10/14 07:49:29;;;;;;;4.70;1.40;;;15.10;99.90;;;;;;5038014;28;20449;-78
2022/10/14 07:51:56;;;;;;;4.03;1.30;;;15.00;99.90;;;;;;5048884;28;20497;-78
2022/10/14 07:54:25;;;;;;;4.00;1.70;;;15.00;99.90;;;;;;5055773;28;20455;-77
2022/10/14 07:56:54;;;;;;;3.53;1.23;;;14.90;99.90;;;;;;5043952;28;20483;-76
2022/10/14 07:59:22;;;;;;;2.57;1.30;;;15.00;99.90;;;;;;5035459;28;20488;-77
2022/10/14 08:01:50;;;;;;;4.10;1.33;;;15.00;99.90;;;;;;5032309;28;20457;-77
2022/10/14 08:04:18;;;;;;;4.20;1.20;;;15.00;99.90;;;;;;5035908;28;20461;-77
2022/10/14 08:06:47;;;;;;;2.20;1.07;;;15.00;99.90;;;;;;5031733;28;20463;-77
2022/10/14 08:09:14;;;;;;;1.60;1.10;;;15.20;99.90;;;;;;5049463;28;20505;-75
2022/10/14 08:11:42;;;;;;;2.83;1.00;;;15.20;99.90;;;;;;5036053;28;20449;-76
2022/10/14 08:14:09;;;;;;;1.97;1.00;;;15.20;99.90;;;;;;5015671;28;20524;-77
2022/10/14 08:16:38;;;;;;;1.40;0.90;;;15.30;99.90;;;;;;5012302;28;20893;-75
2022/10/14 08:19:07;;;;;;;2.00;1.10;;;15.30;99.90;;;;;;5022386;28;20537;-76
2022/10/14 08:21:34;;;;;;;1.30;1.00;;;15.30;99.90;;;;;;5048466;28;20868;-74
2022/10/14 08:24:02;;;;;;;3.50;1.03;;;15.30;99.90;;;;;;5049939;28;20439;-77
2022/10/14 08:26:31;;;;;;;3.30;1.10;;;15.30;99.90;;;;;;5035143;28;20514;-76
2022/10/14 08:29:00;;;;;;;5.23;1.07;;;15.30;99.90;;;;;;5035929;28;20479;-75
2022/10/14 08:31:27;;;;;;;2.70;1.30;;;15.40;99.90;;;;;;5032768;28;20891;-73
2022/10/14 08:33:55;;;;;;;1.90;1.00;;;15.50;99.90;;;;;;5041517;28;20451;-74
2022/10/14 08:36:23;;;;;;;1.40;1.00;;;15.50;99.90;;;;;;5052705;28;20451;-74
2022/10/14 08:38:52;;;;;;;1.30;0.90;;;15.60;99.90;;;;;;5037917;28;20931;-74
2022/10/14 08:41:53;;;;;;;1.80;0.90;;;15.60;99.90;;;;;;5040391;28;20448;-74
2022/10/14 08:44:25;;;;;;;1.40;1.00;;;15.70;99.90;;;;;;5042861;28;20455;-74
2022/10/14 08:46:55;;;;;;;2.07;0.90;;;15.70;99.90;;;;;;5036822;28;20880;-75
2022/10/14 08:49:28;;;;;;;1.10;0.80;;;15.70;99.90;;;;;;5020887;28;20899;-74
2022/10/14 08:52:00;;;;;;;1.77;0.80;;;15.80;99.90;;;;;;5026420;28;20463;-74
2022/10/14 08:54:35;;;;;;;1.97;0.90;;;15.90;99.90;;;;;;5029293;28;20448;-75
2022/10/14 08:57:03;;;;;;;3.47;0.80;;;15.90;99.90;;;;;;5037063;28;20452;-74
2022/10/14 08:59:35;;;;;;;2.67;1.00;;;15.90;99.90;;;;;;5040444;28;20492;-74
2022/10/14 09:02:18;;;;;;;1.30;0.80;;;15.90;99.90;;;;;;5036681;28;20452;-74
2022/10/14 09:04:49;;;;;;;1.40;0.80;;;16.00;99.90;;;;;;5041265;28;20462;-75
2022/10/14 09:07:18;;;;;;;2.70;0.93;;;16.00;99.90;;;;;;5035601;28;20627;-74
2022/10/14 09:09:48;;;;;;;1.37;0.83;;;16.10;99.90;;;;;;5039583;28;20448;-75
2022/10/14 09:12:20;;;;;;;3.17;0.90;;;16.10;99.00;;;;;;5036075;28;20487;-75
2022/10/14 09:14:54;;;;;;;2.53;0.83;;;16.20;99.90;;;;;;5039573;28;20467;-74
2022/10/14 09:17:25;;;;;;;1.73;0.70;;;16.30;92.60;;;;;;5028824;28;20694;-72
2022/10/14 09:20:01;;;;;;;1.50;0.70;;;16.30;83.80;;;;;;5058285;28;20486;-74
2022/10/14 09:22:29;;;;;;;2.70;0.80;;;16.30;78.30;;;;;;5053594;28;20469;-74
2022/10/14 09:25:00;;;;;;;2.13;0.80;;;16.40;84.60;;;;;;5048024;28;20448;-72
2022/10/14 09:27:29;;;;;;;1.40;0.60;;;16.30;73.40;;;;;;5035340;28;20464;-73
2022/10/14 09:30:00;;;;;;;1.43;0.80;;;16.40;87.60;;;;;;5039198;28;20452;-73
2022/10/14 09:32:33;;;;;;;2.30;0.70;;;16.40;67.60;;;;;;5018318;28;20459;-72
2022/10/14 09:35:04;;;;;;;1.30;0.80;;;16.40;65.20;;;;;;5039382;28;20444;-73
2022/10/14 09:37:34;;;;;;;2.97;0.90;;;16.40;70.60;;;;;;5036563;28;20468;-73
2022/10/14 09:40:04;;;;;;;1.20;0.70;;;16.60;39.10;;;;;;5044300;28;20945;-73
2022/10/14 09:42:44;;;;;;;4.20;1.00;;;16.70;67.70;;;;;;5056800;28;20474;-73
2022/10/14 09:48:17;;;;;;;1.10;0.70;;;16.80;35.40;;;;;;5057597;28;20560;-73
2022/10/14 09:51:17;;;;;;;1.00;0.63;;;16.90;35.90;;;;;;5041943;28;20816;-73
2022/10/14 09:53:48;;;;;;;2.03;0.77;;;17.00;45.60;;;;;;5034296;28;20460;-73
2022/10/14 09:56:29;;;;;;;0.97;0.67;;;17.10;22.70;;;;;;5038275;28;20923;-73
2022/10/14 09:58:58;;;;;;;1.00;0.70;;;17.10;13.50;;;;;;5038818;28;20877;-73
2022/10/14 10:01:33;;;;;;;1.40;0.60;;;17.20;8.20;;;;;;5036461;28;20467;-74
2022/10/14 10:04:37;;;;;;;2.40;0.73;;;17.30;22.20;;;;;;5022018;28;20451;-74
2022/10/14 10:07:29;;;;;;;1.17;0.63;;;17.40;1.90;;;;;;5027703;28;20470;-73
2022/10/14 10:09:59;;;;;;;1.07;0.60;;;17.50;10.90;;;;;;5050591;28;20447;-73
2022/10/14 10:12:30;;;;;;;0.97;0.60;;;17.60;1.00;;;;;;5037839;28;20444;-74
2022/10/14 10:15:02;;;;;;;1.17;0.77;;;17.70;1.00;;;;;;5038505;28;20480;-74
2022/10/14 10:17:34;;;;;;;1.47;0.90;;;17.70;1.00;;;;;;5034991;28;20467;-73
2022/10/14 10:20:27;;;;;;;1.53;0.80;;;17.60;1.00;;;;;;5037023;28;20503;-74
2022/10/14 10:22:56;;;;;;;1.30;0.70;;;17.60;7.70;;;;;;5016367;28;20462;-74
2022/10/14 10:25:27;;;;;;;0.90;0.60;;;17.70;9.90;;;;;;5034963;28;20433;-75
2022/10/14 10:28:00;;;;;;;1.73;0.60;;;17.80;2.90;;;;;;5032216;28;20811;-74
2022/10/14 10:30:31;;;;;;;3.73;0.70;;;17.90;1.00;;;;;;5035307;28;20570;-74
2022/10/14 10:33:18;;;;;;;1.50;0.60;;;17.90;1.00;;;;;;5032549;28;20462;-74
2022/10/14 10:36:12;;;;;;;1.57;0.70;;;18.00;1.00;;;;;;5035139;28;20448;-75
2022/10/14 10:38:45;;;;;;;1.37;0.60;;;18.00;1.00;;;;;;5024966;28;20459;-74
2022/10/14 10:41:28;;;;;;;0.80;0.60;;;18.00;1.00;;;;;;5037082;28;20554;-74
2022/10/14 10:44:28;;;;;;;0.80;0.60;;;18.00;1.00;;;;;;5037198;28;20436;-73
2022/10/14 10:47:19;;;;;;;2.03;0.63;;;18.10;1.00;;;;;;5013789;28;20582;-74
2022/10/14 10:50:03;;;;;;;1.20;0.53;;;18.00;1.00;;;;;;5037459;28;20519;-75
2022/10/14 10:52:43;;;;;;;0.90;0.40;;;17.80;1.00;;;;;;5034200;28;20756;-74
2022/10/14 10:55:19;;;;;;;1.80;0.70;;;17.80;1.00;;;;;;5036184;28;20463;-74
2022/10/14 10:57:57;;;;;;;1.10;0.50;;;17.80;1.00;;;;;;5033107;28;20459;-76
2022/10/14 11:00:24;;;;;;;0.87;0.67;;;17.80;1.00;;;;;;5043049;28;20491;-76
2022/10/14 11:03:00;;;;;;;2.07;0.50;;;17.60;1.00;;;;;;5036338;28;20448;-77
2022/10/14 11:05:52;;;;;;;0.70;0.50;;;17.60;1.00;;;;;;5052318;28;20506;-79
2022/10/14 11:14:26;;;;;;;1.10;0.60;;;17.50;17.90;;;;;;5053053;28;20470;-78
2022/10/14 11:17:00;;;;;;;1.40;0.60;;;17.60;11.60;;;;;;5050136;28;20463;-77
2022/10/14 11:19:36;;;;;;;3.10;0.80;;;17.60;76.40;;;;;;5057061;28;20475;-76
2022/10/14 11:22:16;;;;;;;5.10;4.03;;;17.10;96.50;;;;;;5045238;28;20455;-77
2022/10/14 11:24:59;;;;;;;1.63;0.70;;;17.00;99.90;;;;;;5044873;28;20539;-76
2022/10/14 11:27:41;;;;;;;2.60;0.80;;;16.90;99.90;;;;;;5044350;28;20471;-77
2022/10/14 11:30:17;;;;;;;1.40;0.70;;;17.00;99.90;;;;;;5044716;28;20741;-78
2022/10/14 11:33:11;;;;;;;1.63;0.60;;;17.00;99.90;;;;;;5029286;28;20505;-76
2022/10/14 11:35:51;;;;;;;0.90;0.67;;;17.00;99.90;;;;;;5041575;28;20456;-77
2022/10/14 11:38:40;;;;;;;1.87;0.80;;;17.10;99.90;;;;;;5042820;28;20460;-77
2022/10/14 11:41:17;;;;;;;1.10;0.60;;;17.00;99.90;;;;;;5041887;28;20950;-78
2022/10/14 11:43:55;;;;;;;1.00;0.60;;;17.10;99.90;;;;;;5037366;28;20555;-77
2022/10/14 11:46:41;;;;;;;2.23;0.80;;;17.10;99.90;;;;;;5021983;28;20459;-78
2022/10/14 11:49:19;;;;;;;3.53;0.63;;;17.10;99.90;;;;;;5036749;28;20453;-78
2022/10/14 11:51:51;;;;;;;5.13;0.70;;;17.30;99.90;;;;;;5035189;28;20860;-77
2022/10/14 11:54:27;;;;;;;2.30;0.90;;;17.40;99.90;;;;;;5036149;28;20452;-76
2022/10/14 11:57:01;;;;;;;1.00;0.60;;;17.60;99.90;;;;;;5034092;28;20463;-76
2022/10/14 12:02:38;;;;;;;0.70;0.60;;;17.90;99.60;;;;;;5030515;28;20437;-77
2022/10/14 12:05:17;;;;;;;1.50;0.60;;;18.00;99.90;;;;;;5052229;28;20444;-77
2022/10/14 12:07:51;;;;;;;1.00;0.60;;;17.80;85.20;;;;;;5036554;28;20458;-79
2022/10/14 12:10:25;;;;;;;0.80;0.67;;;17.90;98.20;;;;;;5041833;28;20446;-76
2022/10/14 12:12:55;;;;;;;3.43;0.60;;;17.90;98.20;;;;;;5034978;28;20460;-76
2022/10/14 12:15:25;;;;;;;1.10;0.50;;;17.80;83.80;;;;;;5044346;28;20531;-77
2022/10/14 12:17:55;;;;;;;1.10;0.60;;;17.80;93.70;;;;;;5042050;28;20763;-75
2022/10/14 12:20:32;;;;;;;1.00;0.60;;;17.70;92.10;;;;;;5044593;28;20480;-77
2022/10/14 12:23:00;;;;;;;1.47;0.63;;;17.70;90.70;;;;;;5045091;28;20467;-77
2022/10/14 12:25:37;;;;;;;2.00;0.70;;;17.80;90.00;;;;;;5049977;28;20429;-77
2022/10/14 12:28:14;;;;;;;0.93;0.80;;;18.00;62.10;;;;;;5044229;28;20466;-77
2022/10/14 12:30:42;;;;;;;1.03;0.70;;;18.00;56.10;;;;;;5051524;28;20510;-78
2022/10/14 12:33:15;;;;;;;0.77;0.50;;;18.10;47.10;;;;;;5041343;28;20463;-77
2022/10/14 12:35:51;;;;;;;1.70;0.50;;;18.10;47.10;;;;;;5048025;28;20507;-77
2022/10/14 12:38:22;;;;;;;1.00;0.60;;;18.20;34.60;;;;;;5045458;28;20539;-78
2022/10/14 12:40:55;;;;;;;1.40;0.60;;;18.30;38.90;;;;;;5048771;28;20563;-78
2022/10/14 12:43:28;;;;;;;1.27;0.40;;;18.40;48.70;;;;;;5046851;28;20776;-77
2022/10/14 12:46:01;;;;;;;0.97;0.50;;;18.30;23.80;;;;;;5047097;28;20734;-78
2022/10/14 12:48:32;;;;;;;0.67;0.40;;;18.50;36.10;;;;;;5021446;28;20456;-78
2022/10/14 12:51:12;;;;;;;0.70;0.50;;;18.50;28.30;;;;;;5035893;28;20451;-78
2022/10/14 12:53:52;;;;;;;1.30;0.80;;;18.30;23.60;;;;;;5028626;28;20463;-77
2022/10/14 12:56:31;;;;;;;0.80;0.50;;;18.30;14.00;;;;;;5033069;28;20463;-78
2022/10/14 12:59:02;;;;;;;1.10;0.60;;;18.30;39.60;;;;;;5035601;28;20437;-78
2022/10/14 13:01:31;;;;;;;2.07;0.40;;;18.30;32.40;;;;;;5030511;28;20484;-77
2022/10/14 13:04:01;;;;;;;0.70;0.50;;;18.30;26.40;;;;;;5035492;28;20440;-76
2022/10/14 13:06:41;;;;;;;0.70;0.50;;;18.20;25.90;;;;;;5031960;28;20536;-78
2022/10/14 13:09:42;;;;;;;6.17;4.40;;;18.10;30.00;;;;;;5037597;28;20522;-74
2022/10/14 13:12:40;;;;;;;0.77;0.50;;;18.20;55.20;;;;;;5018452;28;20451;-78
2022/10/14 13:15:52;;;;;;;1.07;0.77;;;18.30;49.70;;;;;;5035446;28;20484;-78
2022/10/14 13:19:00;;;;;;;4.83;3.03;;;18.40;41.40;;;;;;4951111;29;20448;-79
2022/10/14 13:21:45;;;;;;;0.97;0.43;;;18.60;30.50;;;;;;5031548;28;20761;-78
2022/10/14 13:24:20;;;;;;;1.27;0.43;;;18.70;1.00;;;;;;5015567;28;20556;-78